createdAt,value
2018-03-22T00:00:49.463Z,57.29
2018-03-22T00:03:16.387Z,57.23
2018-03-22T00:05:43.311Z,57.23
2018-03-22T00:08:10.243Z,57.20
2018-03-22T00:10:37.165Z,57.17
2018-03-22T00:13:04.096Z,57.15
2018-03-22T00:15:31.027Z,57.10
2018-03-22T00:17:57.954Z,57.03
2018-03-22T00:20:24.878Z,57.03
2018-03-22T00:22:51.827Z,56.99
2018-03-22T00:25:18.750Z,56.97
2018-03-22T00:27:45.691Z,56.93
2018-03-22T00:30:12.655Z,56.53
2018-03-22T00:32:39.592Z,56.74
2018-03-22T00:35:06.515Z,56.26
2018-03-22T00:37:33.440Z,56.47
2018-03-22T00:40:00.361Z,56.56
2018-03-22T00:42:27.288Z,56.61
2018-03-22T00:44:54.208Z,56.20
2018-03-22T00:47:21.157Z,56.42
2018-03-22T00:49:48.088Z,56.48
2018-03-22T00:52:15.004Z,55.94
2018-03-22T00:54:41.928Z,56.22
2018-03-22T00:57:08.854Z,56.28
2018-03-22T00:59:35.783Z,56.32
2018-03-22T01:02:02.705Z,56.34
2018-03-22T01:04:29.627Z,56.32
2018-03-22T01:06:56.548Z,56.26
2018-03-22T01:09:23.536Z,56.30
2018-03-22T01:11:50.482Z,56.33
2018-03-22T01:14:17.394Z,56.34
2018-03-22T01:16:44.322Z,56.36
2018-03-22T01:19:11.235Z,56.30
2018-03-22T01:21:38.158Z,56.29
2018-03-22T01:24:05.083Z,56.24
2018-03-22T01:26:32.001Z,56.23
2018-03-22T01:28:58.955Z,56.17
2018-03-22T01:31:25.871Z,56.13
2018-03-22T01:33:52.787Z,56.08
2018-03-22T01:36:19.714Z,56.07
2018-03-22T01:38:46.631Z,56.07
2018-03-22T01:41:13.581Z,56.05
2018-03-22T01:43:40.501Z,56.02
2018-03-22T01:46:07.425Z,56.01
2018-03-22T01:48:34.348Z,55.98
2018-03-22T01:51:01.269Z,55.96
2018-03-22T01:53:28.202Z,55.95
2018-03-22T01:55:55.123Z,55.56
2018-03-22T01:58:22.050Z,55.69
2018-03-22T02:00:48.968Z,55.69
2018-03-22T02:03:15.888Z,55.71
2018-03-22T02:05:42.837Z,55.70
2018-03-22T02:08:09.761Z,55.69
2018-03-22T02:10:36.677Z,55.69
2018-03-22T02:13:03.596Z,55.65
2018-03-22T02:15:30.515Z,55.63
2018-03-22T02:17:57.444Z,55.60
2018-03-22T02:20:24.359Z,55.62
2018-03-22T02:22:51.284Z,55.61
2018-03-22T02:25:18.206Z,55.55
2018-03-22T02:27:45.190Z,55.56
2018-03-22T02:30:12.114Z,55.56
2018-03-22T02:32:39.041Z,55.55
2018-03-22T02:35:05.957Z,55.51
2018-03-22T02:37:32.882Z,55.48
2018-03-22T02:39:59.806Z,55.49
2018-03-22T02:42:26.725Z,55.41
2018-03-22T02:44:53.657Z,55.40
2018-03-22T02:47:20.574Z,55.38
2018-03-22T02:49:47.497Z,55.34
2018-03-22T02:52:14.417Z,55.28
2018-03-22T02:54:41.366Z,55.32
2018-03-22T02:57:08.287Z,55.27
2018-03-22T02:59:35.206Z,55.21
2018-03-22T03:02:02.127Z,55.15
2018-03-22T03:04:29.043Z,55.12
2018-03-22T03:06:56.004Z,55.12
2018-03-22T03:09:22.917Z,55.14
2018-03-22T03:11:49.833Z,55.14
2018-03-22T03:14:16.756Z,55.08
2018-03-22T03:16:43.677Z,55.08
2018-03-22T03:19:10.611Z,55.12
2018-03-22T03:21:37.531Z,55.02
2018-03-22T03:24:04.484Z,55.00
2018-03-22T03:26:31.396Z,55.03
2018-03-22T03:28:58.319Z,55.02
2018-03-22T03:31:25.242Z,55.00
2018-03-22T03:33:52.161Z,55.02
2018-03-22T03:36:19.108Z,54.97
2018-03-22T03:38:46.028Z,55.00
2018-03-22T03:41:12.949Z,54.93
2018-03-22T03:43:39.871Z,54.95
2018-03-22T03:46:06.793Z,54.92
2018-03-22T03:48:33.725Z,54.85
2018-03-22T03:51:00.644Z,54.83
2018-03-22T03:53:27.593Z,54.78
2018-03-22T03:55:54.511Z,54.74
2018-03-22T03:58:21.439Z,54.75
2018-03-22T04:00:48.361Z,54.74
2018-03-22T04:03:15.280Z,54.72
2018-03-22T04:05:42.204Z,54.71
2018-03-22T04:08:09.124Z,54.65
2018-03-22T04:10:36.040Z,54.60
2018-03-22T04:13:02.977Z,54.64
2018-03-22T04:15:29.895Z,54.31
2018-03-22T04:17:56.821Z,54.46
2018-03-22T04:20:23.750Z,54.48
2018-03-22T04:22:50.671Z,54.06
2018-03-22T04:25:17.593Z,54.29
2018-03-22T04:27:44.512Z,54.36
2018-03-22T04:30:11.459Z,54.36
2018-03-22T04:32:38.384Z,54.35
2018-03-22T04:35:05.298Z,54.37
2018-03-22T04:37:32.221Z,54.31
2018-03-22T04:39:59.135Z,54.31
2018-03-22T04:42:26.072Z,54.32
2018-03-22T04:44:52.997Z,54.30
2018-03-22T04:47:19.944Z,53.94
2018-03-22T04:49:46.859Z,54.14
2018-03-22T04:52:13.787Z,54.19
2018-03-22T04:54:40.716Z,54.14
2018-03-22T04:57:07.636Z,53.80
2018-03-22T04:59:34.560Z,53.98
2018-03-22T05:02:01.478Z,54.09
2018-03-22T05:04:28.396Z,54.18
2018-03-22T05:06:55.367Z,54.13
2018-03-22T05:09:22.256Z,54.16
2018-03-22T05:11:49.178Z,54.23
2018-03-22T05:14:16.099Z,54.23
2018-03-22T05:16:43.020Z,54.23
2018-03-22T05:19:09.945Z,54.19
2018-03-22T05:21:36.863Z,54.22
2018-03-22T05:24:03.794Z,54.16
2018-03-22T05:26:30.719Z,53.73
2018-03-22T05:28:57.631Z,53.90
2018-03-22T05:31:24.559Z,53.95
2018-03-22T05:33:51.478Z,54.04
2018-03-22T05:36:18.406Z,54.07
2018-03-22T05:38:45.324Z,53.63
2018-03-22T05:41:12.241Z,53.88
2018-03-22T05:43:39.159Z,53.92
2018-03-22T05:46:06.076Z,53.87
2018-03-22T05:48:32.995Z,53.94
2018-03-22T05:50:59.912Z,53.89
2018-03-22T05:53:26.839Z,53.90
2018-03-22T05:55:53.763Z,53.88
2018-03-22T05:58:20.679Z,53.51
2018-03-22T06:00:47.595Z,53.75
2018-03-22T06:03:14.520Z,53.79
2018-03-22T06:05:41.458Z,53.80
2018-03-22T06:10:35.291Z,53.81
2018-03-22T06:13:02.207Z,53.81
2018-03-22T06:15:29.124Z,53.82
2018-03-22T06:17:56.042Z,53.82
2018-03-22T06:20:22.986Z,53.83
2018-03-22T06:22:49.901Z,53.89
2018-03-22T06:25:16.820Z,53.31
2018-03-22T06:27:43.739Z,53.43
2018-03-22T06:30:10.659Z,53.38
2018-03-22T06:32:37.571Z,53.63
2018-03-22T06:35:04.496Z,53.59
2018-03-22T06:37:31.439Z,53.61
2018-03-22T06:39:58.373Z,53.78
2018-03-22T06:42:25.295Z,53.63
2018-03-22T06:44:52.212Z,53.40
2018-03-22T06:47:19.161Z,53.62
2018-03-22T06:49:46.083Z,53.37
2018-03-22T06:52:13.008Z,53.35
2018-03-22T06:54:39.931Z,53.24
2018-03-22T06:57:06.862Z,53.12
2018-03-22T06:59:33.789Z,53.07
2018-03-22T07:02:00.713Z,53.25
2018-03-22T07:04:27.637Z,53.31
2018-03-22T07:06:54.615Z,53.33
2018-03-22T07:09:21.497Z,53.07
2018-03-22T07:11:48.422Z,52.67
2018-03-22T07:14:15.346Z,52.47
2018-03-22T07:16:42.268Z,52.40
2018-03-22T07:19:09.216Z,52.36
2018-03-22T07:21:36.135Z,52.27
2018-03-22T07:24:03.058Z,52.19
2018-03-22T07:26:29.982Z,52.14
2018-03-22T07:28:56.914Z,52.01
2018-03-22T07:31:23.864Z,51.95
2018-03-22T07:33:50.785Z,51.88
2018-03-22T07:36:17.730Z,51.81
2018-03-22T07:38:44.656Z,51.78
2018-03-22T07:41:11.577Z,51.69
2018-03-22T07:43:41.435Z,51.63
2018-03-22T07:46:08.361Z,51.64
2018-03-22T07:48:35.291Z,51.60
2018-03-22T07:51:02.217Z,51.66
2018-03-22T07:53:29.164Z,51.66
2018-03-22T07:55:56.086Z,51.64
2018-03-22T07:58:23.013Z,51.59
2018-03-22T08:00:49.961Z,51.50
2018-03-22T08:03:16.883Z,51.49
2018-03-22T08:05:43.846Z,51.42
2018-03-22T08:10:37.665Z,51.25
2018-03-22T08:13:04.593Z,51.19
2018-03-22T08:15:31.522Z,51.13
2018-03-22T08:17:58.451Z,51.01
2018-03-22T08:20:25.379Z,50.98
2018-03-22T08:22:52.345Z,50.98
2018-03-22T08:25:19.274Z,50.77
2018-03-22T08:27:46.193Z,51.08
2018-03-22T08:30:13.155Z,51.60
2018-03-22T08:32:40.170Z,51.75
2018-03-22T08:35:07.090Z,51.57
2018-03-22T08:37:34.014Z,51.46
2018-03-22T08:40:00.938Z,51.55
2018-03-22T08:42:27.866Z,51.54
2018-03-22T08:44:54.792Z,51.60
2018-03-22T08:47:21.737Z,51.68
2018-03-22T08:49:48.656Z,51.70
2018-03-22T08:52:15.580Z,51.73
2018-03-22T08:54:42.511Z,51.77
2018-03-22T08:57:09.449Z,51.85
2018-03-22T08:59:36.378Z,51.50
2018-03-22T09:02:03.301Z,51.69
2018-03-22T09:04:30.238Z,51.70
2018-03-22T09:06:57.163Z,51.75
2018-03-22T09:09:24.094Z,51.80
2018-03-22T09:11:51.028Z,51.86
2018-03-22T09:14:17.960Z,52.01
2018-03-22T09:16:44.903Z,52.14
2018-03-22T09:19:11.820Z,52.18
2018-03-22T09:21:38.740Z,52.28
2018-03-22T09:24:05.673Z,52.43
2018-03-22T09:26:50.615Z,52.47
2018-03-22T09:29:17.544Z,52.53
2018-03-22T09:31:44.469Z,52.59
2018-03-22T09:34:11.429Z,52.70
2018-03-22T09:36:38.397Z,52.64
2018-03-22T09:39:05.349Z,52.69
2018-03-22T09:41:32.309Z,52.77
2018-03-22T09:43:59.264Z,52.50
2018-03-22T09:46:26.222Z,52.79
2018-03-22T09:48:53.183Z,52.97
2018-03-22T09:51:20.135Z,53.00
2018-03-22T09:53:47.096Z,53.15
2018-03-22T09:56:14.045Z,53.21
2018-03-22T09:58:41.132Z,53.33
2018-03-22T10:01:08.081Z,53.48
2018-03-22T10:03:35.036Z,53.52
2018-03-22T10:06:01.988Z,53.65
2018-03-22T10:08:28.981Z,53.68
2018-03-22T10:10:55.865Z,53.87
2018-03-22T10:13:22.801Z,53.91
2018-03-22T10:15:49.740Z,53.56
2018-03-22T10:18:16.671Z,53.67
2018-03-22T10:20:43.587Z,53.63
2018-03-22T10:23:10.532Z,53.84
2018-03-22T10:25:37.470Z,53.89
2018-03-22T10:28:04.389Z,53.47
2018-03-22T10:30:31.317Z,53.68
2018-03-22T10:32:58.240Z,53.81
2018-03-22T10:35:26.434Z,53.78
2018-03-22T10:37:53.356Z,53.82
2018-03-22T10:40:20.288Z,53.84
2018-03-22T10:42:47.224Z,53.82
2018-03-22T10:45:14.196Z,53.36
2018-03-22T10:47:41.073Z,53.57
2018-03-22T10:50:08.003Z,53.66
2018-03-22T10:52:34.935Z,53.65
2018-03-22T10:55:01.869Z,53.73
2018-03-22T10:57:28.793Z,53.70
2018-03-22T10:59:55.724Z,53.72
2018-03-22T11:02:40.509Z,53.76
2018-03-22T11:05:07.438Z,53.79
2018-03-22T11:07:34.370Z,53.63
2018-03-22T11:10:01.326Z,53.58
2018-03-22T11:12:28.257Z,53.54
2018-03-22T11:14:55.186Z,53.56
2018-03-22T11:17:22.113Z,53.29
2018-03-22T11:19:49.044Z,53.53
2018-03-22T11:22:15.986Z,53.58
2018-03-22T11:24:42.913Z,53.66
2018-03-22T11:27:09.864Z,53.61
2018-03-22T11:29:36.775Z,53.62
2018-03-22T11:32:03.694Z,53.58
2018-03-22T11:34:30.656Z,53.59
2018-03-22T11:36:57.647Z,53.23
2018-03-22T11:39:24.580Z,52.93
2018-03-22T11:41:51.520Z,53.24
2018-03-22T11:44:18.449Z,53.39
2018-03-22T11:46:45.361Z,53.40
2018-03-22T11:49:12.286Z,53.48
2018-03-22T11:51:39.239Z,53.51
2018-03-22T11:54:06.165Z,53.38
2018-03-22T11:56:33.076Z,53.29
2018-03-22T11:59:00.032Z,53.39
2018-03-22T12:01:26.982Z,53.46
2018-03-22T12:03:53.949Z,53.22
2018-03-22T12:06:20.915Z,52.97
2018-03-22T12:08:47.859Z,53.37
2018-03-22T12:11:14.832Z,53.48
2018-03-22T12:13:41.780Z,53.55
2018-03-22T12:16:08.729Z,53.59
2018-03-22T12:18:35.686Z,53.40
2018-03-22T12:21:02.646Z,53.46
2018-03-22T12:23:29.619Z,53.42
2018-03-22T12:25:56.567Z,53.42
2018-03-22T12:28:23.524Z,53.38
2018-03-22T12:30:50.476Z,53.07
2018-03-22T12:33:17.433Z,53.32
2018-03-22T12:35:44.525Z,53.30
2018-03-22T12:38:11.479Z,52.88
2018-03-22T12:40:38.406Z,53.17
2018-03-22T12:43:05.335Z,53.22
2018-03-22T12:45:32.271Z,53.19
2018-03-22T12:47:59.216Z,52.74
2018-03-22T12:50:26.135Z,53.00
2018-03-22T12:52:53.097Z,53.08
2018-03-22T12:55:20.016Z,52.55
2018-03-22T12:57:46.943Z,52.32
2018-03-22T13:00:13.901Z,52.69
2018-03-22T13:02:40.835Z,52.85
2018-03-22T13:05:07.762Z,52.28
2018-03-22T13:07:34.685Z,52.57
2018-03-22T13:10:01.609Z,52.70
2018-03-22T13:12:28.538Z,52.79
2018-03-22T13:14:55.462Z,53.50
2018-03-22T13:17:22.389Z,53.48
2018-03-22T13:19:49.322Z,54.16
2018-03-22T13:22:16.240Z,54.28
2018-03-22T13:27:14.893Z,55.50
2018-03-22T13:29:41.828Z,55.52
2018-03-22T13:32:08.758Z,55.58
2018-03-22T13:34:35.693Z,55.04
2018-03-22T13:37:02.627Z,54.99
2018-03-22T13:39:29.550Z,54.66
2018-03-22T13:41:56.480Z,54.71
2018-03-22T13:44:23.404Z,54.59
2018-03-22T13:46:50.335Z,54.75
2018-03-22T13:49:17.288Z,54.31
2018-03-22T13:51:44.204Z,54.50
2018-03-22T13:54:11.133Z,54.47
2018-03-22T13:56:38.054Z,54.54
2018-03-22T13:59:04.984Z,54.68
2018-03-22T14:01:31.918Z,54.75
2018-03-22T14:03:58.856Z,54.31
2018-03-22T14:08:52.697Z,54.52
2018-03-22T14:11:19.622Z,54.55
2018-03-22T14:13:46.558Z,54.52
2018-03-22T14:16:13.487Z,54.47
2018-03-22T14:18:40.421Z,54.47
2018-03-22T14:21:07.341Z,54.46
2018-03-22T14:23:34.343Z,54.44
2018-03-22T14:26:01.221Z,54.43
2018-03-22T14:28:28.141Z,54.39
2018-03-22T14:30:55.095Z,54.31
2018-03-22T14:33:22.036Z,54.39
2018-03-22T14:35:48.955Z,54.34
2018-03-22T14:38:15.882Z,54.17
2018-03-22T14:40:42.816Z,54.04
2018-03-22T14:43:09.746Z,53.91
2018-03-22T14:45:36.669Z,53.84
2018-03-22T14:48:03.593Z,53.70
2018-03-22T14:50:30.527Z,53.38
2018-03-22T14:52:57.449Z,53.33
2018-03-22T14:55:24.410Z,53.28
2018-03-22T14:57:51.332Z,53.30
2018-03-22T15:00:18.264Z,53.34
2018-03-22T15:02:45.203Z,53.17
2018-03-22T15:05:12.137Z,52.78
2018-03-22T15:07:39.084Z,52.87
2018-03-22T15:10:06.004Z,52.62
2018-03-22T15:12:32.933Z,52.65
2018-03-22T15:14:59.858Z,52.60
2018-03-22T15:17:26.792Z,52.56
2018-03-22T15:19:53.727Z,52.11
2018-03-22T15:22:20.716Z,52.28
2018-03-22T15:24:47.580Z,52.34
2018-03-22T15:27:14.510Z,52.30
2018-03-22T15:29:41.440Z,52.21
2018-03-22T15:32:08.500Z,52.12
2018-03-22T15:34:35.432Z,52.02
2018-03-22T15:37:02.353Z,51.94
2018-03-22T15:39:29.286Z,51.88
2018-03-22T15:41:56.211Z,51.82
2018-03-22T15:44:23.159Z,51.81
2018-03-22T15:46:50.117Z,51.79
2018-03-22T15:49:17.041Z,51.38
2018-03-22T15:51:43.972Z,51.55
2018-03-22T15:54:10.890Z,51.64
2018-03-22T15:56:37.812Z,51.62
2018-03-22T15:59:04.753Z,51.54
2018-03-22T16:01:31.677Z,51.49
2018-03-22T16:03:58.606Z,51.39
2018-03-22T16:06:25.566Z,51.34
2018-03-22T16:08:52.470Z,51.34
2018-03-22T16:11:19.398Z,51.46
2018-03-22T16:13:46.333Z,51.53
2018-03-22T16:16:13.258Z,51.49
2018-03-22T16:18:40.264Z,51.69
2018-03-22T16:21:07.190Z,51.95
2018-03-22T16:23:34.111Z,52.05
2018-03-22T16:26:01.054Z,52.04
2018-03-22T16:28:27.976Z,51.81
2018-03-22T16:30:54.953Z,52.06
2018-03-22T16:33:21.896Z,52.16
2018-03-22T16:35:48.820Z,52.28
2018-03-22T16:38:15.754Z,52.29
2018-03-22T16:40:42.678Z,52.30
2018-03-22T16:43:09.602Z,52.36
2018-03-22T16:45:36.527Z,52.28
2018-03-22T16:48:03.453Z,52.12
2018-03-22T16:50:30.380Z,52.05
2018-03-22T16:52:57.329Z,52.08
2018-03-22T16:55:24.255Z,52.05
2018-03-22T16:57:51.184Z,52.01
2018-03-22T17:00:18.148Z,51.98
2018-03-22T17:02:45.065Z,51.98
2018-03-22T17:05:11.993Z,52.00
2018-03-22T17:07:38.917Z,51.89
2018-03-22T17:10:05.838Z,51.96
2018-03-22T17:12:32.765Z,52.01
2018-03-22T17:14:59.685Z,52.16
2018-03-22T17:17:26.628Z,52.21
2018-03-22T17:19:53.560Z,52.20
2018-03-22T17:22:20.501Z,52.16
2018-03-22T17:24:47.414Z,52.16
2018-03-22T17:27:14.341Z,52.17
2018-03-22T17:29:41.272Z,52.11
2018-03-22T17:32:08.197Z,51.75
2018-03-22T17:34:35.132Z,51.95
2018-03-22T17:37:02.056Z,51.98
2018-03-22T17:39:28.989Z,52.02
2018-03-22T17:41:55.917Z,52.05
2018-03-22T17:44:22.836Z,52.01
2018-03-22T17:46:49.789Z,52.13
2018-03-22T17:49:16.717Z,49.66
2018-03-22T17:51:43.645Z,51.65
2018-03-22T17:54:10.572Z,51.10
2018-03-22T17:56:37.498Z,50.90
2018-03-22T17:59:04.447Z,51.46
2018-03-22T18:01:31.386Z,51.63
2018-03-22T18:03:58.345Z,51.89
2018-03-22T18:06:25.280Z,52.13
2018-03-22T18:08:52.201Z,52.30
2018-03-22T18:11:19.160Z,52.76
2018-03-22T18:13:46.086Z,53.13
2018-03-22T18:16:13.010Z,53.18
2018-03-22T18:18:42.731Z,53.17
2018-03-22T18:21:09.654Z,53.09
2018-03-22T18:23:36.586Z,53.16
2018-03-22T18:26:03.509Z,53.35
2018-03-22T18:28:30.522Z,53.43
2018-03-22T18:30:57.446Z,53.59
2018-03-22T18:33:24.376Z,53.66
2018-03-22T18:35:51.307Z,53.75
2018-03-22T18:38:18.232Z,54.05
2018-03-22T18:40:45.165Z,54.39
2018-03-22T18:45:48.705Z,54.87
2018-03-22T18:48:15.639Z,54.96
2018-03-22T18:50:46.544Z,54.96
2018-03-22T18:53:13.478Z,55.43
2018-03-22T18:55:40.401Z,55.73
2018-03-22T18:58:07.323Z,55.94
2018-03-22T19:00:34.253Z,56.13
2018-03-22T19:03:01.176Z,56.04
2018-03-22T19:05:28.100Z,55.71
2018-03-22T19:07:55.057Z,55.49
2018-03-22T19:10:21.976Z,55.60
2018-03-22T19:12:48.904Z,55.38
2018-03-22T19:15:15.835Z,55.27
2018-03-22T19:17:42.757Z,55.29
2018-03-22T19:20:09.689Z,55.37
2018-03-22T19:22:36.617Z,55.30
2018-03-22T19:25:03.565Z,56.08
2018-03-22T19:27:30.618Z,55.69
2018-03-22T19:29:57.545Z,55.23
2018-03-22T19:32:24.469Z,55.34
2018-03-22T19:34:51.397Z,55.39
2018-03-22T19:37:18.326Z,55.33
2018-03-22T19:39:45.253Z,55.32
2018-03-22T19:42:12.204Z,55.71
2018-03-22T19:44:39.129Z,55.51
2018-03-22T19:47:06.053Z,55.57
2018-03-22T19:49:32.986Z,55.51
2018-03-22T19:51:59.912Z,55.53
2018-03-22T19:54:26.863Z,55.56
2018-03-22T19:56:53.786Z,55.54
2018-03-22T19:59:20.750Z,55.58
2018-03-22T20:01:47.680Z,55.69
2018-03-22T20:04:14.605Z,55.29
2018-03-22T20:06:41.551Z,55.48
2018-03-22T20:09:08.473Z,55.48
2018-03-22T20:11:35.405Z,55.53
2018-03-22T20:14:02.345Z,55.52
2018-03-22T20:16:29.266Z,55.54
2018-03-22T20:18:56.193Z,55.59
2018-03-22T20:21:23.128Z,55.67
2018-03-22T20:23:50.087Z,55.59
2018-03-22T20:26:17.082Z,55.58
2018-03-22T20:28:43.950Z,55.09
2018-03-22T20:31:10.880Z,55.30
2018-03-22T20:33:37.806Z,55.39
2018-03-22T20:36:04.813Z,55.45
2018-03-22T20:38:32.211Z,55.48
2018-03-22T20:40:59.133Z,55.45
2018-03-22T20:43:26.063Z,55.81
2018-03-22T20:45:52.987Z,56.36
2018-03-22T20:48:19.937Z,56.58
2018-03-22T20:50:46.856Z,57.25
2018-03-22T20:53:13.794Z,56.98
2018-03-22T20:55:40.721Z,57.17
2018-03-22T20:58:07.646Z,57.24
2018-03-22T21:00:34.601Z,57.36
2018-03-22T21:03:01.616Z,56.88
2018-03-22T21:05:28.528Z,56.98
2018-03-22T21:07:55.465Z,56.92
2018-03-22T21:10:22.466Z,56.45
2018-03-22T21:12:49.349Z,56.83
2018-03-22T21:15:16.261Z,56.90
2018-03-22T21:17:43.186Z,56.94
2018-03-22T21:20:10.114Z,56.91
2018-03-22T21:22:37.037Z,56.97
2018-03-22T21:25:03.988Z,56.95
2018-03-22T21:27:30.915Z,56.84
2018-03-22T21:29:57.835Z,56.83
2018-03-22T21:32:24.757Z,56.81
2018-03-22T21:34:51.681Z,56.71
2018-03-22T21:37:18.617Z,56.70
2018-03-22T21:39:45.545Z,56.58
2018-03-22T21:42:12.469Z,56.08
2018-03-22T21:44:39.394Z,56.21
2018-03-22T21:47:06.316Z,56.24
2018-03-22T21:49:33.241Z,56.19
2018-03-22T21:52:00.184Z,56.16
2018-03-22T21:54:27.111Z,55.59
2018-03-22T21:56:54.043Z,55.76
2018-03-22T21:59:20.974Z,55.73
2018-03-22T22:01:47.909Z,55.19
2018-03-22T22:04:14.829Z,55.44
2018-03-22T22:06:41.760Z,55.42
2018-03-22T22:09:08.688Z,55.36
2018-03-22T22:11:35.646Z,55.26
2018-03-22T22:14:02.574Z,55.12
2018-03-22T22:16:29.507Z,55.11
2018-03-22T22:18:56.429Z,55.05
2018-03-22T22:21:23.349Z,54.96
2018-03-22T22:23:50.308Z,54.93
2018-03-22T22:26:17.224Z,54.86
2018-03-22T22:28:44.144Z,54.80
2018-03-22T22:31:11.070Z,54.77
2018-03-22T22:33:38.002Z,54.73
2018-03-22T22:36:04.936Z,54.25
2018-03-22T22:38:31.858Z,54.43
2018-03-22T22:40:58.814Z,54.41
2018-03-22T22:43:25.735Z,54.38
2018-03-22T22:45:52.662Z,54.30
2018-03-22T22:48:19.597Z,54.26
2018-03-22T22:50:46.527Z,54.22
2018-03-22T22:53:13.436Z,54.19
2018-03-22T22:55:40.356Z,54.15
2018-03-22T22:58:07.284Z,54.14
2018-03-22T23:00:34.209Z,54.01
2018-03-22T23:03:01.134Z,53.85
2018-03-22T23:05:28.061Z,53.83
2018-03-22T23:07:54.991Z,53.39
2018-03-22T23:10:21.909Z,53.57
2018-03-22T23:12:48.833Z,53.62
2018-03-22T23:15:15.753Z,53.63
2018-03-22T23:17:42.676Z,53.59
2018-03-22T23:20:09.611Z,53.51
2018-03-22T23:22:36.534Z,53.48
2018-03-22T23:25:03.460Z,53.41
2018-03-22T23:27:30.393Z,53.41
2018-03-22T23:29:57.361Z,53.42
2018-03-22T23:32:24.286Z,53.04
2018-03-22T23:34:51.209Z,52.72
2018-03-22T23:37:18.164Z,52.94
2018-03-22T23:39:45.095Z,52.93
2018-03-22T23:42:12.012Z,52.43
2018-03-22T23:44:38.941Z,52.79
2018-03-22T23:47:05.864Z,52.83
2018-03-22T23:49:32.844Z,52.88
2018-03-22T23:51:59.741Z,52.91
2018-03-22T23:54:26.661Z,52.48
2018-03-22T23:56:53.590Z,52.17
2018-03-22T23:59:20.524Z,52.54
